createdAt,value
2022-09-17T00:00:24.109Z,100737.28
2022-09-17T00:01:17.226Z,100729.09
2022-09-17T00:02:07.030Z,100734.63
2022-09-17T00:02:56.289Z,100735.44
2022-09-17T00:03:43.279Z,100719.06
2022-09-17T00:04:29.870Z,100731.06
2022-09-17T00:05:16.400Z,100723.69
2022-09-17T00:06:07.151Z,100731.41
2022-09-17T00:06:53.646Z,100734.06
2022-09-17T00:07:40.041Z,100729.09
2022-09-17T00:08:26.485Z,100722.16
2022-09-17T00:09:13.392Z,100720.78
2022-09-17T00:09:59.818Z,100731.63
2022-09-17T00:10:46.595Z,100728.75
2022-09-17T00:11:36.134Z,100726.69
2022-09-17T00:12:22.609Z,100727.97
2022-09-17T00:13:11.478Z,100725.19
2022-09-17T00:14:01.110Z,100732.00
2022-09-17T00:14:47.788Z,100719.16
2022-09-17T00:15:43.851Z,100720.44
2022-09-17T00:16:33.833Z,100725.66
2022-09-17T00:17:20.295Z,100718.38
2022-09-17T00:18:07.197Z,100715.13
2022-09-17T00:18:54.368Z,100719.16
2022-09-17T00:19:40.871Z,100725.41
2022-09-17T00:20:27.728Z,100723.31
2022-09-17T00:21:19.279Z,100725.53
2022-09-17T00:22:05.722Z,100718.59
2022-09-17T00:22:53.986Z,100720.78
2022-09-17T00:23:40.400Z,100716.75
2022-09-17T00:24:27.071Z,100715.97
2022-09-17T00:25:13.508Z,100715.63
2022-09-17T00:25:59.915Z,100712.38
2022-09-17T00:26:47.221Z,100714.19
2022-09-17T00:27:33.640Z,100722.88
2022-09-17T00:28:20.162Z,100727.97
2022-09-17T00:29:07.093Z,100719.50
2022-09-17T00:29:53.714Z,100722.16
2022-09-17T00:30:45.338Z,100721.38
2022-09-17T00:31:33.136Z,100718.03
2022-09-17T00:32:19.571Z,100731.53
2022-09-17T00:33:06.205Z,100723.44
2022-09-17T00:33:53.518Z,100727.13
2022-09-17T00:34:40.037Z,100725.28
2022-09-17T00:35:27.731Z,100716.31
2022-09-17T00:36:14.512Z,100723.66
2022-09-17T00:37:01.112Z,100717.56
2022-09-17T00:37:47.482Z,100721.81
2022-09-17T00:38:34.575Z,100725.28
2022-09-17T00:39:21.013Z,100725.66
2022-09-17T00:40:08.304Z,100720.91
2022-09-17T00:40:55.221Z,100716.41
2022-09-17T00:41:43.748Z,100721.25
2022-09-17T00:42:30.206Z,100721.81
2022-09-17T00:43:33.101Z,100724.81
2022-09-17T00:44:48.373Z,100720.91
2022-09-17T00:45:34.869Z,100721.47
2022-09-17T00:46:39.072Z,100721.81
2022-09-17T00:47:41.416Z,100711.09
2022-09-17T00:48:27.907Z,100724.38
2022-09-17T00:49:20.235Z,100720.22
2022-09-17T00:50:09.410Z,100724.38
2022-09-17T00:51:01.207Z,100718.81
2022-09-17T00:52:00.289Z,100726.00
2022-09-17T00:52:55.446Z,100720.00
2022-09-17T00:53:42.455Z,100725.75
2022-09-17T00:54:29.303Z,100719.06
2022-09-17T00:55:32.073Z,100713.41
2022-09-17T00:56:26.729Z,100716.66
2022-09-17T00:57:14.016Z,100723.09
2022-09-17T00:58:05.691Z,100723.44
2022-09-17T00:58:55.529Z,100720.22
2022-09-17T00:59:42.356Z,100724.25
2022-09-17T01:00:30.921Z,100729.41
2022-09-17T01:01:19.666Z,100730.69
2022-09-17T01:02:06.941Z,100730.47
2022-09-17T01:02:54.487Z,100727.59
2022-09-17T01:03:41.726Z,100723.78
2022-09-17T01:04:28.229Z,100719.28
2022-09-17T01:05:16.483Z,100724.59
2022-09-17T01:06:19.464Z,100722.16
2022-09-17T01:07:30.680Z,100728.66
2022-09-17T01:08:35.627Z,100728.88
2022-09-17T01:09:48.745Z,100728.31
2022-09-17T01:11:13.708Z,100731.31
2022-09-17T01:12:10.563Z,100735.00
2022-09-17T01:13:28.921Z,100732.56
2022-09-17T01:14:33.531Z,100731.41
2022-09-17T01:15:44.221Z,100735.22
2022-09-17T01:16:44.276Z,100734.91
2022-09-17T01:18:00.115Z,100736.38
2022-09-17T01:19:23.069Z,100731.75
2022-09-17T01:20:48.497Z,100736.63
2022-09-17T01:22:02.958Z,100730.69
2022-09-17T01:23:21.698Z,100733.59
2022-09-17T01:24:33.060Z,100736.84
2022-09-17T01:25:33.150Z,100734.75
2022-09-17T01:26:37.795Z,100732.91
2022-09-17T01:27:45.927Z,100740.88
2022-09-17T01:28:58.610Z,100745.34
2022-09-17T01:30:08.803Z,100741.44
2022-09-17T01:31:21.482Z,100744.09
2022-09-17T01:32:24.318Z,100736.63
2022-09-17T01:33:28.748Z,100732.34
2022-09-17T01:34:42.353Z,100740.53
2022-09-17T01:35:43.169Z,100741.47
2022-09-17T01:36:48.817Z,100733.88
2022-09-17T01:38:01.649Z,100739.84
2022-09-17T01:38:49.036Z,100740.19
2022-09-17T01:39:54.019Z,100734.31
2022-09-17T01:40:55.736Z,100737.09
2022-09-17T01:41:59.592Z,100734.44
2022-09-17T01:43:23.177Z,100740.09
2022-09-17T01:44:32.055Z,100744.50
2022-09-17T01:45:27.617Z,100747.25
2022-09-17T01:46:24.904Z,100739.50
2022-09-17T01:47:21.241Z,100747.38
2022-09-17T01:48:19.889Z,100749.53
2022-09-17T01:49:11.833Z,100747.47
2022-09-17T01:50:06.136Z,100747.81
2022-09-17T01:51:04.064Z,100751.88
2022-09-17T01:51:51.849Z,100752.53
2022-09-17T01:52:42.133Z,100745.16
2022-09-17T01:53:38.622Z,100748.16
2022-09-17T01:54:39.206Z,100747.00
2022-09-17T01:55:38.127Z,100758.09
2022-09-17T01:56:40.757Z,100752.31
2022-09-17T01:57:33.727Z,100761.44
2022-09-17T01:58:31.624Z,100763.63
2022-09-17T01:59:46.867Z,100756.81
2022-09-17T02:00:35.275Z,100752.66
2022-09-17T02:01:28.608Z,100758.78
2022-09-17T02:02:38.578Z,100755.06
2022-09-17T02:03:35.038Z,100755.22
2022-09-17T02:04:38.571Z,100749.53
2022-09-17T02:05:35.666Z,100749.53
2022-09-17T02:06:30.016Z,100754.84
2022-09-17T02:07:22.609Z,100750.34
2022-09-17T02:08:16.377Z,100746.06
2022-09-17T02:09:15.576Z,100746.06
2022-09-17T02:10:06.556Z,100751.16
2022-09-17T02:11:11.858Z,100741.22
2022-09-17T02:12:05.335Z,100749.63
2022-09-17T02:13:00.591Z,100753.22
2022-09-17T02:14:00.228Z,100750.66
2022-09-17T02:14:55.835Z,100753.13
2022-09-17T02:15:55.433Z,100756.00
2022-09-17T02:16:51.993Z,100748.97
2022-09-17T02:17:51.863Z,100748.59
2022-09-17T02:18:50.822Z,100749.06
2022-09-17T02:19:39.366Z,100760.53
2022-09-17T02:20:45.960Z,100753.34
2022-09-17T02:21:40.863Z,100757.25
2022-09-17T02:22:41.515Z,100747.81
2022-09-17T02:23:34.591Z,100755.53
2022-09-17T02:24:31.094Z,100755.09
2022-09-17T02:25:31.530Z,100747.56
2022-09-17T02:26:21.179Z,100750.34
2022-09-17T02:27:37.176Z,100751.72
2022-09-17T02:28:41.903Z,100751.50
2022-09-17T02:29:35.762Z,100753.94
2022-09-17T02:30:22.200Z,100756.00
2022-09-17T02:31:09.667Z,100761.56
2022-09-17T02:31:56.386Z,100759.59
2022-09-17T02:32:43.762Z,100760.53
2022-09-17T02:33:35.176Z,100748.97
2022-09-17T02:34:25.179Z,100756.59
2022-09-17T02:35:14.192Z,100752.75
2022-09-17T02:36:01.541Z,100757.38
2022-09-17T02:36:48.212Z,100755.88
2022-09-17T02:37:35.139Z,100753.22
2022-09-17T02:38:26.129Z,100758.88
2022-09-17T02:39:12.783Z,100760.03
2022-09-17T02:39:59.853Z,100759.13
2022-09-17T02:41:00.694Z,100758.63
2022-09-17T02:42:17.343Z,100759.91
2022-09-17T02:43:22.776Z,100756.47
2022-09-17T02:44:21.827Z,100757.16
2022-09-17T02:45:28.893Z,100757.94
2022-09-17T02:46:53.760Z,100764.09
2022-09-17T02:48:07.875Z,100767.56
2022-09-17T02:49:44.802Z,100767.44
2022-09-17T02:50:52.384Z,100759.03
2022-09-17T02:51:53.824Z,100761.09
2022-09-17T02:53:07.751Z,100755.66
2022-09-17T02:54:10.057Z,100756.59
2022-09-17T02:55:21.433Z,100762.81
2022-09-17T02:56:34.001Z,100767.91
2022-09-17T02:57:30.352Z,100757.16
2022-09-17T02:58:16.708Z,100767.19
2022-09-17T02:59:11.828Z,100763.28
2022-09-17T03:00:20.726Z,100759.34
2022-09-17T03:01:19.443Z,100761.34
2022-09-17T03:02:16.199Z,100756.81
2022-09-17T03:03:13.111Z,100761.34
2022-09-17T03:04:05.854Z,100758.31
2022-09-17T03:04:55.751Z,100759.34
2022-09-17T03:05:44.097Z,100761.22
2022-09-17T03:06:30.998Z,100762.94
2022-09-17T03:07:20.142Z,100761.22
2022-09-17T03:08:09.591Z,100754.53
2022-09-17T03:08:57.196Z,100759.34
2022-09-17T03:09:44.425Z,100759.81
2022-09-17T03:10:33.449Z,100753.69
2022-09-17T03:11:20.491Z,100759.16
2022-09-17T03:12:07.164Z,100755.56
2022-09-17T03:12:53.874Z,100759.69
2022-09-17T03:13:41.342Z,100760.41
2022-09-17T03:14:27.756Z,100759.59
2022-09-17T03:15:14.326Z,100758.66
2022-09-17T03:16:03.370Z,100758.31
2022-09-17T03:16:49.944Z,100761.69
2022-09-17T03:17:36.480Z,100758.78
2022-09-17T03:18:23.701Z,100754.16
2022-09-17T03:19:10.230Z,100758.44
2022-09-17T03:19:56.766Z,100759.72
2022-09-17T03:20:43.166Z,100763.75
2022-09-17T03:21:29.865Z,100758.44
2022-09-17T03:22:16.307Z,100760.06
2022-09-17T03:23:02.792Z,100757.75
2022-09-17T03:23:49.251Z,100761.31
2022-09-17T03:24:35.787Z,100765.72
2022-09-17T03:25:22.321Z,100763.84
2022-09-17T03:26:09.173Z,100770.44
2022-09-17T03:26:55.697Z,100752.69
2022-09-17T03:27:42.111Z,100757.97
2022-09-17T03:28:28.577Z,100765.59
2022-09-17T03:29:16.126Z,100762.72
2022-09-17T03:30:02.781Z,100761.69
2022-09-17T03:30:49.242Z,100764.69
2022-09-17T03:31:35.762Z,100761.44
2022-09-17T03:32:22.259Z,100771.00
2022-09-17T03:33:08.644Z,100769.88
2022-09-17T03:33:55.140Z,100767.88
2022-09-17T03:34:41.517Z,100767.88
2022-09-17T03:35:28.193Z,100772.53
2022-09-17T03:36:14.593Z,100763.84
2022-09-17T03:37:01.231Z,100771.97
2022-09-17T03:37:47.648Z,100769.88
2022-09-17T03:38:34.930Z,100768.25
2022-09-17T03:39:21.391Z,100764.19
2022-09-17T03:40:08.115Z,100765.03
2022-09-17T03:41:03.759Z,100767.34
2022-09-17T03:41:50.196Z,100767.69
2022-09-17T03:42:36.648Z,100763.66
2022-09-17T03:43:23.261Z,100766.84
2022-09-17T03:44:10.478Z,100769.41
2022-09-17T03:44:57.352Z,100770.22
2022-09-17T03:45:43.756Z,100768.84
2022-09-17T03:46:30.427Z,100771.38
2022-09-17T03:47:17.285Z,100762.81
2022-09-17T03:48:03.845Z,100763.28
2022-09-17T03:48:50.512Z,100771.25
2022-09-17T03:49:36.913Z,100763.28
2022-09-17T03:50:24.391Z,100774.94
2022-09-17T03:51:11.377Z,100770.34
2022-09-17T03:51:58.658Z,100776.22
2022-09-17T03:52:45.505Z,100776.91
2022-09-17T03:53:32.732Z,100774.84
2022-09-17T03:54:19.221Z,100775.66
2022-09-17T03:55:06.265Z,100772.06
2022-09-17T03:55:52.785Z,100780.94
2022-09-17T03:56:39.199Z,100774.38
2022-09-17T03:57:25.770Z,100771.94
2022-09-17T03:58:12.184Z,100780.84
2022-09-17T03:58:59.774Z,100773.22
2022-09-17T03:59:46.233Z,100772.75
2022-09-17T04:00:33.494Z,100770.91
2022-09-17T04:01:26.396Z,100769.03
2022-09-17T04:02:12.972Z,100777.94
2022-09-17T04:02:59.514Z,100775.63
2022-09-17T04:03:46.114Z,100774.00
2022-09-17T04:04:32.610Z,100776.31
2022-09-17T04:05:19.238Z,100768.59
2022-09-17T04:06:05.987Z,100778.53
2022-09-17T04:06:52.475Z,100772.88
2022-09-17T04:07:41.248Z,100778.50
2022-09-17T04:08:27.881Z,100777.22
2022-09-17T04:09:14.328Z,100775.28
2022-09-17T04:10:00.986Z,100778.97
2022-09-17T04:10:48.373Z,100778.06
2022-09-17T04:11:37.403Z,100779.56
2022-09-17T04:12:23.863Z,100784.06
2022-09-17T04:13:11.162Z,100778.63
2022-09-17T04:13:57.625Z,100779.56
2022-09-17T04:14:44.088Z,100773.22
2022-09-17T04:15:30.468Z,100782.22
2022-09-17T04:16:16.991Z,100783.13
2022-09-17T04:17:03.530Z,100782.78
2022-09-17T04:17:49.958Z,100783.72
2022-09-17T04:18:36.727Z,100779.09
2022-09-17T04:19:23.151Z,100788.56
2022-09-17T04:20:09.909Z,100779.66
2022-09-17T04:20:57.019Z,100784.66
2022-09-17T04:21:43.440Z,100787.91
2022-09-17T04:22:29.857Z,100785.25
2022-09-17T04:23:18.488Z,100782.69
2022-09-17T04:24:05.082Z,100782.81
2022-09-17T04:24:51.722Z,100788.34
2022-09-17T04:25:39.015Z,100778.75
2022-09-17T04:26:25.649Z,100778.19
2022-09-17T04:27:12.276Z,100784.41
2022-09-17T04:27:58.814Z,100783.03
2022-09-17T04:28:46.330Z,100783.72
2022-09-17T04:29:32.843Z,100787.44
2022-09-17T04:30:19.510Z,100779.47
2022-09-17T04:31:06.169Z,100794.69
2022-09-17T04:31:53.024Z,100797.81
2022-09-17T04:32:39.793Z,100792.38
2022-09-17T04:33:26.244Z,100794.91
2022-09-17T04:34:12.779Z,100792.03
2022-09-17T04:34:59.264Z,100791.78
2022-09-17T04:35:45.832Z,100792.38
2022-09-17T04:36:32.261Z,100792.63
2022-09-17T04:37:19.790Z,100782.59
2022-09-17T04:38:06.415Z,100791.47
2022-09-17T04:38:53.459Z,100788.00
2022-09-17T04:39:40.120Z,100789.84
2022-09-17T04:40:27.745Z,100791.81
2022-09-17T04:41:14.293Z,100789.03
2022-09-17T04:42:00.787Z,100800.00
2022-09-17T04:42:47.290Z,100798.16
2022-09-17T04:43:34.497Z,100791.22
2022-09-17T04:44:21.081Z,100803.69
2022-09-17T04:45:07.784Z,100797.13
2022-09-17T04:45:54.315Z,100791.91
2022-09-17T04:46:40.856Z,100802.44
2022-09-17T04:47:27.318Z,100791.81
2022-09-17T04:48:13.770Z,100796.53
2022-09-17T04:49:00.401Z,100793.19
2022-09-17T04:49:46.864Z,100796.53
2022-09-17T04:50:33.316Z,100798.16
2022-09-17T04:51:19.715Z,100798.84
2022-09-17T04:52:06.296Z,100796.66
2022-09-17T04:52:52.760Z,100795.84
2022-09-17T04:53:39.207Z,100802.09
2022-09-17T04:54:25.743Z,100798.38
2022-09-17T04:55:13.767Z,100801.63
2022-09-17T04:56:00.356Z,100803.47
2022-09-17T04:56:46.776Z,100810.63
2022-09-17T04:57:33.304Z,100802.66
2022-09-17T04:58:19.811Z,100806.00
2022-09-17T04:59:06.314Z,100805.69
2022-09-17T04:59:52.734Z,100806.72
2022-09-17T05:00:39.475Z,100812.13
2022-09-17T05:01:26.494Z,100805.78
2022-09-17T05:02:12.905Z,100806.81
2022-09-17T05:02:59.436Z,100805.88
2022-09-17T05:03:46.229Z,100806.13
2022-09-17T05:04:32.664Z,100805.78
2022-09-17T05:05:19.536Z,100811.22
2022-09-17T05:06:06.290Z,100814.31
2022-09-17T05:06:52.750Z,100812.81
2022-09-17T05:07:40.329Z,100813.97
2022-09-17T05:08:26.751Z,100807.72
2022-09-17T05:09:14.702Z,100815.38
2022-09-17T05:10:01.172Z,100804.75
2022-09-17T05:10:47.597Z,100807.41
2022-09-17T05:11:34.393Z,100813.63
2022-09-17T05:12:20.801Z,100813.50
2022-09-17T05:13:07.410Z,100811.88
2022-09-17T05:13:54.001Z,100814.91
2022-09-17T05:14:40.451Z,100811.66
2022-09-17T05:15:27.694Z,100809.13
2022-09-17T05:16:14.402Z,100803.00
2022-09-17T05:17:01.070Z,100808.31
2022-09-17T05:17:47.910Z,100808.44
2022-09-17T05:18:34.300Z,100813.63
2022-09-17T05:19:22.289Z,100812.13
2022-09-17T05:20:09.730Z,100813.16
2022-09-17T05:20:56.398Z,100814.09
2022-09-17T05:21:42.916Z,100814.53
2022-09-17T05:22:29.741Z,100815.38
2022-09-17T05:23:16.460Z,100816.50
2022-09-17T05:24:03.213Z,100810.72
2022-09-17T05:24:50.240Z,100814.91
2022-09-17T05:25:36.696Z,100815.59
2022-09-17T05:26:23.243Z,100813.75
2022-09-17T05:27:09.656Z,100816.41
2022-09-17T05:27:56.380Z,100814.56
2022-09-17T05:28:43.373Z,100813.19
2022-09-17T05:29:29.787Z,100816.88
2022-09-17T05:30:16.359Z,100819.16
2022-09-17T05:31:03.987Z,100814.22
2022-09-17T05:31:51.077Z,100815.69
2022-09-17T05:32:39.143Z,100816.50
2022-09-17T05:33:26.345Z,100827.56
2022-09-17T05:34:12.859Z,100818.22
2022-09-17T05:35:03.604Z,100828.06
2022-09-17T05:35:52.238Z,100809.34
2022-09-17T05:36:38.683Z,100827.34
2022-09-17T05:37:25.129Z,100815.00
2022-09-17T05:38:11.596Z,100809.00
2022-09-17T05:38:58.110Z,100818.22
2022-09-17T05:39:44.635Z,100829.19
2022-09-17T05:40:33.033Z,100817.78
2022-09-17T05:41:19.529Z,100822.28
2022-09-17T05:42:06.226Z,100826.31
2022-09-17T05:42:52.612Z,100831.75
2022-09-17T05:43:39.007Z,100820.09
2022-09-17T05:44:25.986Z,100834.97
2022-09-17T05:45:12.791Z,100835.22
2022-09-17T05:46:06.836Z,100832.22
2022-09-17T05:46:54.272Z,100830.16
2022-09-17T05:47:40.885Z,100828.19
2022-09-17T05:48:27.358Z,100833.16
2022-09-17T05:49:15.262Z,100837.06
2022-09-17T05:50:01.678Z,100842.28
2022-09-17T05:50:48.593Z,100838.13
2022-09-17T05:51:35.204Z,100843.41
2022-09-17T05:52:21.603Z,100846.31
2022-09-17T05:53:12.285Z,100837.28
2022-09-17T05:53:58.796Z,100840.28
2022-09-17T05:54:46.632Z,100843.53
2022-09-17T05:55:34.978Z,100847.91
2022-09-17T05:56:22.019Z,100846.53
2022-09-17T05:57:08.836Z,100848.72
2022-09-17T05:57:55.369Z,100852.22
2022-09-17T05:58:41.939Z,100854.75
2022-09-17T05:59:29.688Z,100850.25
2022-09-17T06:00:17.169Z,100847.38
2022-09-17T06:01:04.311Z,100849.88
2022-09-17T06:01:51.035Z,100849.31
2022-09-17T06:02:37.889Z,100858.56
2022-09-17T06:03:24.435Z,100858.56
2022-09-17T06:04:11.184Z,100859.00
2022-09-17T06:05:00.779Z,100863.25
2022-09-17T06:05:55.650Z,100862.22
2022-09-17T06:06:42.752Z,100857.72
2022-09-17T06:07:30.090Z,100851.25
2022-09-17T06:08:16.642Z,100861.75
2022-09-17T06:09:03.441Z,100859.69
2022-09-17T06:09:50.001Z,100864.44
2022-09-17T06:10:38.491Z,100868.69
2022-09-17T06:11:25.072Z,100861.28
2022-09-17T06:12:11.521Z,100860.72
2022-09-17T06:12:59.743Z,100871.13
2022-09-17T06:13:46.147Z,100859.44
2022-09-17T06:14:32.618Z,100867.75
2022-09-17T06:15:19.153Z,100865.09
2022-09-17T06:16:05.969Z,100867.28
2022-09-17T06:16:52.530Z,100869.16
2022-09-17T06:17:39.455Z,100870.28
2022-09-17T06:18:27.865Z,100867.63
2022-09-17T06:19:14.250Z,100866.69
2022-09-17T06:20:01.254Z,100861.81
2022-09-17T06:20:58.905Z,100866.28
2022-09-17T06:21:47.186Z,100868.13
2022-09-17T06:22:33.667Z,100862.03
2022-09-17T06:23:21.043Z,100860.75
2022-09-17T06:24:10.380Z,100868.22
2022-09-17T06:24:56.855Z,100866.16
2022-09-17T06:25:43.245Z,100857.91
2022-09-17T06:26:29.699Z,100867.97
2022-09-17T06:27:16.292Z,100870.69
2022-09-17T06:28:03.332Z,100868.13
2022-09-17T06:28:50.106Z,100862.91
2022-09-17T06:29:36.611Z,100860.69
2022-09-17T06:30:23.000Z,100864.84
2022-09-17T06:31:11.943Z,100867.72
2022-09-17T06:31:58.508Z,100860.91
2022-09-17T06:32:44.970Z,100870.97
2022-09-17T06:33:32.489Z,100869.94
2022-09-17T06:34:18.978Z,100868.81
2022-09-17T06:35:06.269Z,100865.47
2022-09-17T06:36:01.269Z,100865.81
2022-09-17T06:36:49.626Z,100873.25
2022-09-17T06:37:40.056Z,100866.50
2022-09-17T06:38:31.888Z,100871.97
2022-09-17T06:39:18.281Z,100864.44
2022-09-17T06:40:05.097Z,100864.69
2022-09-17T06:40:52.560Z,100870.69
2022-09-17T06:41:39.209Z,100857.81
2022-09-17T06:42:26.899Z,100861.75
2022-09-17T06:43:13.517Z,100871.47
2022-09-17T06:44:00.121Z,100878.28
2022-09-17T06:44:46.636Z,100882.47
2022-09-17T06:45:33.110Z,100875.88
2022-09-17T06:46:19.623Z,100885.59
2022-09-17T06:47:07.885Z,100865.97
2022-09-17T06:47:54.477Z,100872.59
2022-09-17T06:48:41.032Z,100867.81
2022-09-17T06:49:28.728Z,100873.22
2022-09-17T06:50:15.395Z,100864.78
2022-09-17T06:51:04.607Z,100877.50
2022-09-17T06:51:51.060Z,100872.19
2022-09-17T06:52:38.741Z,100876.13
2022-09-17T06:53:25.252Z,100872.88
2022-09-17T06:54:12.361Z,100876.78
2022-09-17T06:54:59.383Z,100882.69
2022-09-17T06:55:45.840Z,100884.31
2022-09-17T06:56:34.264Z,100888.56
2022-09-17T06:57:20.864Z,100892.59
2022-09-17T06:58:07.362Z,100895.63
2022-09-17T06:58:54.247Z,100890.31
2022-09-17T06:59:40.852Z,100885.78
2022-09-17T07:00:27.296Z,100890.41
2022-09-17T07:01:14.631Z,100896.41
2022-09-17T07:02:01.404Z,100892.38
2022-09-17T07:03:01.212Z,100896.63
2022-09-17T07:03:49.640Z,100899.16
2022-09-17T07:04:36.131Z,100897.44
2022-09-17T07:05:22.676Z,100893.28
2022-09-17T07:06:11.040Z,100900.00
2022-09-17T07:06:57.483Z,100902.09
2022-09-17T07:07:43.876Z,100906.81
2022-09-17T07:08:34.431Z,100903.66
2022-09-17T07:09:20.850Z,100896.84
2022-09-17T07:10:07.873Z,100901.31
2022-09-17T07:10:58.194Z,100898.53
2022-09-17T07:11:44.823Z,100892.03
2022-09-17T07:12:31.296Z,100892.75
2022-09-17T07:13:17.930Z,100897.03
2022-09-17T07:14:05.208Z,100894.13
2022-09-17T07:14:51.664Z,100894.50
2022-09-17T07:15:38.165Z,100887.66
2022-09-17T07:16:26.591Z,100892.44
2022-09-17T07:17:14.165Z,100888.75
2022-09-17T07:18:07.184Z,100888.03
2022-09-17T07:18:53.659Z,100898.31
2022-09-17T07:19:40.268Z,100895.81
2022-09-17T07:20:26.810Z,100903.66
2022-09-17T07:21:13.256Z,100911.91
2022-09-17T07:22:00.049Z,100895.63
2022-09-17T07:22:54.421Z,100900.25
2022-09-17T07:23:40.870Z,100897.03
2022-09-17T07:24:32.024Z,100904.19
2022-09-17T07:25:19.198Z,100893.88
2022-09-17T07:26:08.904Z,100899.16
2022-09-17T07:26:55.870Z,100903.44
2022-09-17T07:27:42.276Z,100899.88
2022-09-17T07:28:29.197Z,100901.78
2022-09-17T07:29:15.603Z,100902.47
2022-09-17T07:30:02.580Z,100898.53
2022-09-17T07:30:50.485Z,100894.50
2022-09-17T07:31:37.412Z,100891.03
2022-09-17T07:32:25.259Z,100903.50
2022-09-17T07:33:11.726Z,100905.00
2022-09-17T07:33:59.290Z,100902.56
2022-09-17T07:34:46.292Z,100892.31
2022-09-17T07:35:32.757Z,100887.13
2022-09-17T07:36:19.234Z,100891.03
2022-09-17T07:37:05.695Z,100888.94
2022-09-17T07:37:52.090Z,100895.63
2022-09-17T07:38:39.585Z,100888.94
2022-09-17T07:39:26.057Z,100894.16
2022-09-17T07:40:12.504Z,100893.13
2022-09-17T07:41:00.384Z,100898.16
2022-09-17T07:41:47.178Z,100894.03
2022-09-17T07:42:34.023Z,100903.41
2022-09-17T07:43:20.594Z,100900.53
2022-09-17T07:44:07.773Z,100898.88
2022-09-17T07:44:57.469Z,100898.09
2022-09-17T07:45:46.275Z,100899.63
2022-09-17T07:46:32.869Z,100890.84
2022-09-17T07:47:20.042Z,100896.19
2022-09-17T07:48:06.932Z,100897.47
2022-09-17T07:48:53.356Z,100882.19
2022-09-17T07:49:39.776Z,100883.00
2022-09-17T07:50:26.224Z,100897.63
2022-09-17T07:51:24.000Z,100893.16
2022-09-17T07:52:10.699Z,100897.84
2022-09-17T07:52:57.091Z,100894.88
2022-09-17T07:53:43.567Z,100888.66
2022-09-17T07:54:30.274Z,100898.03
2022-09-17T07:55:16.778Z,100893.25
2022-09-17T07:56:03.304Z,100894.94
2022-09-17T07:56:49.818Z,100892.63
2022-09-17T07:57:36.687Z,100894.69
2022-09-17T07:58:27.901Z,100891.81
2022-09-17T07:59:14.344Z,100896.34
2022-09-17T08:00:00.812Z,100887.91
2022-09-17T08:00:49.278Z,100894.41
2022-09-17T08:01:36.791Z,100894.41
2022-09-17T08:02:24.658Z,100900.38
2022-09-17T08:03:11.180Z,100898.09
2022-09-17T08:03:57.564Z,100903.91
2022-09-17T08:04:44.230Z,100899.53
2022-09-17T08:05:32.276Z,100897.44
2022-09-17T08:06:30.776Z,100896.00
2022-09-17T08:07:17.247Z,100900.50
2022-09-17T08:08:03.722Z,100896.94
2022-09-17T08:08:50.322Z,100898.09
2022-09-17T08:09:37.088Z,100895.56
2022-09-17T08:10:23.725Z,100896.03
2022-09-17T08:11:23.650Z,100900.19
2022-09-17T08:12:19.419Z,100904.22
2022-09-17T08:13:05.803Z,100904.06
2022-09-17T08:13:53.824Z,100900.59
2022-09-17T08:14:40.607Z,100903.34
2022-09-17T08:15:27.171Z,100900.22
2022-09-17T08:16:13.687Z,100898.28
2022-09-17T08:17:00.122Z,100898.97
2022-09-17T08:17:47.706Z,100905.38
2022-09-17T08:18:35.576Z,100897.84
2022-09-17T08:19:22.166Z,100898.91
2022-09-17T08:20:09.051Z,100899.00
2022-09-17T08:21:00.383Z,100899.38
2022-09-17T08:21:47.216Z,100893.16
2022-09-17T08:22:33.785Z,100892.94
2022-09-17T08:23:20.439Z,100897.22
2022-09-17T08:24:07.071Z,100888.91
2022-09-17T08:24:53.461Z,100893.88
2022-09-17T08:25:39.855Z,100892.25
2022-09-17T08:26:27.396Z,100886.31
2022-09-17T08:27:13.762Z,100888.22
2022-09-17T08:28:00.177Z,100887.59
2022-09-17T08:28:49.216Z,100889.06
2022-09-17T08:29:35.712Z,100889.97
2022-09-17T08:30:22.969Z,100887.88
2022-09-17T08:31:09.617Z,100890.91
2022-09-17T08:31:56.934Z,100894.56
2022-09-17T08:32:43.308Z,100897.25
2022-09-17T08:33:34.816Z,100889.34
2022-09-17T08:34:21.345Z,100897.41
2022-09-17T08:35:08.645Z,100894.72
2022-09-17T08:35:59.416Z,100909.03
2022-09-17T08:36:45.990Z,100899.34
2022-09-17T08:37:32.796Z,100903.84
2022-09-17T08:38:19.725Z,100903.00
2022-09-17T08:39:06.470Z,100898.66
2022-09-17T08:39:53.104Z,100895.00
2022-09-17T08:40:52.377Z,100899.78
2022-09-17T08:42:07.554Z,100902.75
2022-09-17T08:43:02.324Z,100896.56
2022-09-17T08:44:30.528Z,100911.94
2022-09-17T08:45:19.131Z,100899.44
2022-09-17T08:46:10.613Z,100899.38
2022-09-17T08:47:06.141Z,100910.94
2022-09-17T08:48:04.996Z,100900.47
2022-09-17T08:49:16.488Z,100902.50
2022-09-17T08:50:06.754Z,100898.25
2022-09-17T08:50:56.294Z,100899.59
2022-09-17T08:52:23.821Z,100901.44
2022-09-17T08:53:24.108Z,100906.22
2022-09-17T08:54:28.961Z,100909.91
2022-09-17T08:55:35.645Z,100909.53
2022-09-17T08:56:22.826Z,100906.03
2022-09-17T08:57:35.188Z,100901.78
2022-09-17T08:58:35.121Z,100905.16
2022-09-17T08:59:39.011Z,100907.84
2022-09-17T09:00:26.951Z,100908.44
2022-09-17T09:01:35.401Z,100902.25
2022-09-17T09:02:59.886Z,100898.78
2022-09-17T09:04:00.199Z,100902.16
2022-09-17T09:05:18.348Z,100899.03
2022-09-17T09:06:10.530Z,100903.91
2022-09-17T09:07:26.138Z,100898.81
2022-09-17T09:08:29.783Z,100903.81
2022-09-17T09:09:20.841Z,100897.31
2022-09-17T09:10:24.399Z,100895.13
2022-09-17T09:11:17.776Z,100899.22
2022-09-17T09:12:22.482Z,100902.59
2022-09-17T09:13:17.656Z,100896.59
2022-09-17T09:14:09.846Z,100902.78
2022-09-17T09:14:59.849Z,100902.75
2022-09-17T09:15:55.057Z,100897.00
2022-09-17T09:16:46.952Z,100914.16
2022-09-17T09:17:42.079Z,100908.78
2022-09-17T09:18:37.779Z,100918.63
2022-09-17T09:19:28.233Z,100915.59
2022-09-17T09:20:29.866Z,100908.94
2022-09-17T09:21:27.571Z,100907.88
2022-09-17T09:22:19.782Z,100908.44
2022-09-17T09:23:19.074Z,100909.97
2022-09-17T09:24:22.358Z,100906.22
2022-09-17T09:25:11.848Z,100910.84
2022-09-17T09:26:10.383Z,100918.66
2022-09-17T09:27:22.401Z,100912.63
2022-09-17T09:28:40.308Z,100915.78
2022-09-17T09:29:29.593Z,100908.94
2022-09-17T09:30:19.237Z,100913.44
2022-09-17T09:31:31.478Z,100903.06
2022-09-17T09:32:39.480Z,100910.56
2022-09-17T09:33:37.230Z,100910.53
2022-09-17T09:34:27.551Z,100903.34
2022-09-17T09:35:22.312Z,100908.78
2022-09-17T09:36:17.414Z,100902.34
2022-09-17T09:37:25.838Z,100900.09
2022-09-17T09:38:24.995Z,100900.69
2022-09-17T09:39:24.818Z,100903.38
2022-09-17T09:40:36.015Z,100918.69
2022-09-17T09:41:43.565Z,100916.94
2022-09-17T09:42:33.737Z,100897.16
2022-09-17T09:43:32.769Z,100900.31